Time;durP1;ratioP1;P1;durP2;ratioP2;P2;SDS_P1;SDS_P2;PMS_P1;PMS_P2;Temp;Humidity;BMP_temperature;BMP_pressure;BME280_temperature;BME280_humidity;BME280_pressure;Samples;Min_cycle;Max_cycle;Signal;HPM_P1;HPM_P2
2021/01/16 00:00:51;;;;;;;56.77;33.63;;;;;;;3.88;50.60;102751.94;6142841;28;20361;-68
2021/01/16 00:04:12;;;;;;;38.83;24.47;;;;;;;3.62;46.64;102751.50;6121746;28;20239;-69
2021/01/16 00:07:32;;;;;;;18.13;13.07;;;;;;;3.56;45.74;102746.03;6119581;28;20240;-69
2021/01/16 00:10:55;;;;;;;12.90;9.17;;;;;;;3.34;45.57;102734.66;6119742;28;20240;-68
2021/01/16 00:14:16;;;;;;;14.80;10.53;;;;;;;3.51;46.48;102727.78;6118547;28;20228;-68
2021/01/16 00:17:36;;;;;;;10.47;7.60;;;;;;;3.62;46.42;102736.03;6118604;28;20232;-69
2021/01/16 00:20:59;;;;;;;7.20;6.50;;;;;;;3.28;44.59;102726.63;6119668;28;20235;-69
2021/01/16 00:24:19;;;;;;;7.77;7.07;;;;;;;3.11;45.43;102719.72;6111679;28;20232;-69
2021/01/16 00:27:40;;;;;;;5.70;5.20;;;;;;;2.72;44.60;102727.09;6116443;28;20240;-69
2021/01/16 00:31:02;;;;;;;6.97;6.37;;;;;;;2.79;45.86;102718.88;6118853;28;20232;-67
2021/01/16 00:34:22;;;;;;;7.00;6.30;;;;;;;2.88;46.11;102710.78;6116680;28;20228;-68
2021/01/16 00:37:44;;;;;;;7.97;6.53;;;;;;;2.78;45.26;102726.56;6120166;28;20232;-68
2021/01/16 00:41:04;;;;;;;6.47;5.87;;;;;;;2.87;45.51;102719.28;6131638;28;20920;-68
2021/01/16 00:44:26;;;;;;;7.93;6.30;;;;;;;3.00;45.10;102715.69;6118111;28;20235;-69
2021/01/16 00:47:47;;;;;;;7.93;6.10;;;;;;;2.94;45.22;102714.56;6114546;28;20248;-69
2021/01/16 00:51:08;;;;;;;8.03;7.23;;;;;;;2.68;44.72;102727.75;6122169;28;20512;-68
2021/01/16 00:54:35;;;;;;;7.67;6.00;;;;;;;2.51;46.12;102720.00;6133122;28;20235;-68
2021/01/16 00:58:08;;;;;;;8.23;6.37;;;;;;;2.50;44.91;102723.38;6131389;28;20232;-67
2021/01/16 01:01:29;;;;;;;8.57;7.77;;;;;;;2.62;46.33;102727.38;6112129;28;20272;-67
2021/01/16 01:04:51;;;;;;;7.27;6.57;;;;;;;2.70;45.30;102726.13;6147714;28;20240;-67
2021/01/16 01:08:11;;;;;;;5.93;5.33;;;;;;;2.59;45.14;102720.41;6120116;28;20622;-68
2021/01/16 01:11:32;;;;;;;6.03;5.43;;;;;;;2.50;45.40;102725.94;6118123;28;20240;-66
2021/01/16 01:14:52;;;;;;;6.37;5.77;;;;;;;2.47;46.18;102723.19;6120988;28;20251;-68
2021/01/16 01:18:14;;;;;;;7.07;6.37;;;;;;;2.39;45.42;102714.19;6117541;28;20232;-68
2021/01/16 01:21:34;;;;;;;6.97;6.03;;;;;;;2.50;45.90;102715.66;6116318;28;20246;-69
2021/01/16 01:24:54;;;;;;;7.17;6.47;;;;;;;2.22;46.26;102714.94;6120527;28;20232;-68
2021/01/16 01:28:15;;;;;;;6.50;5.90;;;;;;;2.25;46.15;102716.00;6117303;28;20716;-68
2021/01/16 01:31:36;;;;;;;6.27;5.67;;;;;;;2.30;45.41;102709.41;6119357;28;20335;-68
2021/01/16 01:34:58;;;;;;;6.03;5.43;;;;;;;2.41;45.92;102711.72;6120001;28;20311;-68
2021/01/16 01:38:18;;;;;;;6.87;5.97;;;;;;;2.48;45.84;102713.78;6117524;28;20239;-69
2021/01/16 01:41:39;;;;;;;5.63;5.13;;;;;;;2.46;45.00;102716.31;6119148;28;20662;-68
2021/01/16 01:44:59;;;;;;;6.63;5.97;;;;;;;2.52;45.90;102711.50;6120128;28;20251;-68
2021/01/16 01:48:19;;;;;;;6.97;6.00;;;;;;;2.56;45.45;102708.28;6112477;28;20227;-68
2021/01/16 01:51:44;;;;;;;6.40;5.80;;;;;;;2.68;45.36;102715.75;6118092;28;20231;-68
2021/01/16 01:55:07;;;;;;;6.63;5.97;;;;;;;2.69;45.45;102714.94;6119066;28;20259;-68
2021/01/16 01:58:29;;;;;;;7.47;6.57;;;;;;;2.60;45.10;102718.72;6119788;28;20318;-68
2021/01/16 02:01:51;;;;;;;8.27;6.30;;;;;;;2.63;45.42;102716.31;6117227;28;20730;-68
2021/01/16 02:05:13;;;;;;;7.07;6.37;;;;;;;2.49;45.14;102716.44;6124231;28;20277;-69
2021/01/16 02:08:35;;;;;;;5.93;5.33;;;;;;;2.63;45.29;102724.03;6122670;28;20553;-68
2021/01/16 02:11:56;;;;;;;6.43;5.70;;;;;;;2.70;45.68;102714.16;6122479;28;20239;-68
2021/01/16 02:15:30;;;;;;;7.23;5.53;;;;;;;2.70;45.03;102713.28;6123615;28;20273;-68
2021/01/16 02:18:56;;;;;;;6.47;5.37;;;;;;;2.81;45.26;102693.25;6124106;28;20231;-68
2021/01/16 02:22:17;;;;;;;7.33;5.80;;;;;;;2.78;44.89;102696.56;6122513;28;20512;-68
2021/01/16 02:25:53;;;;;;;7.60;6.80;;;;;;;2.92;45.34;102690.44;6124136;28;20254;-68
2021/01/16 02:29:15;;;;;;;7.50;6.70;;;;;;;2.65;44.90;102697.56;6120114;28;20223;-68
2021/01/16 02:32:38;;;;;;;6.30;5.70;;;;;;;2.81;45.66;102688.09;6120785;28;20753;-67
2021/01/16 02:36:04;;;;;;;6.60;5.83;;;;;;;2.61;45.07;102692.19;6123553;28;20810;-68
2021/01/16 02:39:32;;;;;;;6.70;6.00;;;;;;;2.79;45.64;102677.72;6135586;28;20539;-68
2021/01/16 02:43:15;;;;;;;7.77;6.03;;;;;;;2.75;45.64;102674.13;6121739;28;20943;-68
2021/01/16 02:46:45;;;;;;;6.63;5.90;;;;;;;2.81;46.12;102668.41;6121523;28;20240;-68
2021/01/16 02:50:08;;;;;;;6.30;5.70;;;;;;;2.68;46.13;102666.00;6123430;28;20227;-68
2021/01/16 02:53:35;;;;;;;12.73;9.17;;;;;;;2.52;45.84;102669.41;6122598;28;20638;-68
2021/01/16 02:56:56;;;;;;;7.37;6.67;;;;;;;2.46;46.78;102652.00;6122832;28;20274;-68
2021/01/16 03:00:20;;;;;;;7.23;6.57;;;;;;;2.23;46.38;102655.91;6117012;28;20494;-66
2021/01/16 03:03:41;;;;;;;6.83;6.23;;;;;;;2.43;47.07;102658.66;6111257;28;20235;-68
2021/01/16 03:07:04;;;;;;;6.77;6.07;;;;;;;2.64;46.46;102648.63;6123308;28;20338;-68
2021/01/16 03:10:25;;;;;;;7.17;6.47;;;;;;;2.81;46.25;102647.84;6121780;28;20235;-68
2021/01/16 03:13:48;;;;;;;7.87;6.93;;;;;;;2.43;47.12;102658.66;6118425;28;20228;-68
2021/01/16 03:17:11;;;;;;;7.77;6.97;;;;;;;2.50;46.96;102659.06;6113232;28;20240;-68
2021/01/16 03:20:32;;;;;;;8.50;7.70;;;;;;;2.26;47.24;102660.31;6121783;28;20766;-68
2021/01/16 03:23:52;;;;;;;7.73;6.13;;;;;;;2.33;47.38;102654.72;6121323;28;20231;-69
2021/01/16 03:27:13;;;;;;;7.23;6.53;;;;;;;2.64;47.46;102658.94;6121828;28;20251;-69
2021/01/16 03:30:34;;;;;;;8.13;7.33;;;;;;;2.71;46.51;102655.84;6121734;28;20235;-68
2021/01/16 03:33:54;;;;;;;6.37;5.73;;;;;;;2.50;46.69;102655.59;6120929;28;20838;-68
2021/01/16 03:37:17;;;;;;;7.00;6.30;;;;;;;2.46;46.47;102658.81;6117286;28;20235;-68
2021/01/16 03:40:38;;;;;;;8.83;7.37;;;;;;;2.58;46.71;102650.88;6120116;28;20733;-69
2021/01/16 03:43:58;;;;;;;7.07;6.37;;;;;;;2.66;46.51;102647.91;6135497;28;20231;-68
2021/01/16 03:47:19;;;;;;;7.63;6.60;;;;;;;2.53;47.00;102640.34;6121073;28;20626;-69
2021/01/16 03:50:39;;;;;;;7.97;7.17;;;;;;;2.72;46.12;102647.34;6115764;28;20232;-69
2021/01/16 03:54:01;;;;;;;9.87;6.93;;;;;;;2.78;46.63;102647.66;6119418;28;20781;-68
2021/01/16 03:57:22;;;;;;;7.37;6.37;;;;;;;2.81;46.00;102647.84;6119715;28;20244;-68
2021/01/16 04:00:43;;;;;;;6.90;5.63;;;;;;;2.81;45.75;102637.53;6117735;28;20232;-68
2021/01/16 04:04:03;;;;;;;8.10;7.33;;;;;;;2.60;46.00;102637.31;6120029;28;20244;-68
2021/01/16 04:07:24;;;;;;;6.63;6.00;;;;;;;2.77;46.27;102648.44;6120287;28;20243;-69
2021/01/16 04:10:45;;;;;;;8.07;7.27;;;;;;;2.61;46.46;102643.31;6122350;28;20326;-68
2021/01/16 04:14:05;;;;;;;7.23;6.53;;;;;;;2.70;46.20;102646.38;6120984;28;20236;-68
2021/01/16 04:17:26;;;;;;;6.90;6.10;;;;;;;2.64;46.28;102633.22;6119678;28;20224;-68
2021/01/16 04:20:46;;;;;;;6.83;6.13;;;;;;;2.75;46.60;102622.66;6133020;28;20224;-68
2021/01/16 04:24:07;;;;;;;7.50;6.70;;;;;;;2.49;45.55;102633.28;6119748;28;20497;-68
2021/01/16 04:27:28;;;;;;;8.13;6.37;;;;;;;2.55;46.54;102620.72;6121076;28;20749;-68
2021/01/16 04:30:49;;;;;;;6.43;5.73;;;;;;;2.44;46.19;102638.16;6109655;28;20240;-68
2021/01/16 04:34:10;;;;;;;7.30;6.17;;;;;;;2.48;47.02;102626.34;6107802;28;20232;-68
2021/01/16 04:37:30;;;;;;;6.67;6.07;;;;;;;2.69;46.19;102626.59;6126329;28;20624;-68
2021/01/16 04:40:51;;;;;;;6.80;6.10;;;;;;;2.71;45.39;102624.97;6120416;28;20259;-69
2021/01/16 04:44:14;;;;;;;7.83;7.00;;;;;;;2.59;45.83;102629.50;6119518;28;20236;-69
2021/01/16 04:47:35;;;;;;;6.30;5.70;;;;;;;2.75;46.02;102619.19;6116190;28;20231;-68
2021/01/16 04:51:00;;;;;;;6.67;5.90;;;;;;;2.33;46.62;102619.59;6118727;28;20236;-68
2021/01/16 04:54:21;;;;;;;7.70;6.90;;;;;;;2.60;46.33;102616.72;6115402;28;20260;-68
2021/01/16 04:57:43;;;;;;;7.27;6.60;;;;;;;2.69;46.68;102624.03;6120725;28;20546;-68
2021/01/16 05:01:06;;;;;;;9.30;6.67;;;;;;;2.60;46.34;102620.97;6118570;28;20228;-68
2021/01/16 05:04:32;;;;;;;7.63;6.83;;;;;;;2.72;46.65;102621.63;6117468;28;20248;-68
2021/01/16 05:07:54;;;;;;;7.07;6.17;;;;;;;2.63;46.22;102621.13;6120735;28;20251;-68
2021/01/16 05:11:23;;;;;;;6.37;5.77;;;;;;;2.55;45.88;102616.47;6118363;28;20240;-68
2021/01/16 05:14:56;;;;;;;6.77;5.63;;;;;;;2.82;46.47;102608.41;6119719;28;20227;-68
2021/01/16 05:18:19;;;;;;;6.60;5.77;;;;;;;2.72;45.69;102608.75;6115093;28;20256;-68
2021/01/16 05:21:39;;;;;;;7.77;6.20;;;;;;;2.85;45.71;102608.59;6118047;28;20243;-68
2021/01/16 05:25:01;;;;;;;6.70;6.00;;;;;;;3.04;45.30;102605.22;6119350;28;20235;-67
2021/01/16 05:28:23;;;;;;;7.17;6.37;;;;;;;3.11;45.75;102597.00;6120223;28;20235;-68
2021/01/16 05:31:48;;;;;;;8.37;6.73;;;;;;;2.90;45.27;102594.25;6118112;28;20323;-68
2021/01/16 05:35:16;;;;;;;6.63;6.07;;;;;;;2.83;45.55;102591.28;6120283;28;20362;-68
2021/01/16 05:38:38;;;;;;;5.80;5.27;;;;;;;2.93;45.20;102593.53;6120942;28;20235;-67
2021/01/16 05:42:01;;;;;;;7.17;6.47;;;;;;;2.98;45.81;102584.34;6118117;28;20232;-68
2021/01/16 05:45:24;;;;;;;6.80;6.17;;;;;;;2.84;45.68;102575.91;6117706;28;20231;-68
2021/01/16 05:48:44;;;;;;;10.10;6.47;;;;;;;2.67;46.03;102576.75;6118720;28;20521;-68
2021/01/16 05:52:07;;;;;;;6.53;5.93;;;;;;;2.80;45.94;102560.25;6119423;28;20228;-68
2021/01/16 05:55:32;;;;;;;6.60;5.93;;;;;;;3.05;45.44;102567.53;6117247;28;20621;-68
2021/01/16 05:58:52;;;;;;;6.20;5.00;;;;;;;3.07;45.34;102556.47;6130444;28;20259;-67
2021/01/16 06:02:14;;;;;;;7.00;6.10;;;;;;;3.01;45.51;102558.75;6118071;28;20239;-68
2021/01/16 06:05:35;;;;;;;6.47;5.77;;;;;;;3.00;45.28;102559.56;6116272;28;20232;-67
2021/01/16 06:08:57;;;;;;;6.80;6.10;;;;;;;3.01;45.95;102558.75;6117889;28;20963;-68
2021/01/16 06:12:20;;;;;;;6.30;5.23;;;;;;;3.03;45.71;102551.13;6117150;28;20236;-68
2021/01/16 06:15:46;;;;;;;6.80;5.70;;;;;;;3.18;46.08;102551.88;6116185;28;20240;-68
2021/01/16 06:19:08;;;;;;;8.03;6.17;;;;;;;2.94;45.46;102554.09;6118517;28;20227;-68
2021/01/16 06:22:33;;;;;;;6.77;5.87;;;;;;;2.93;46.10;102550.66;6117132;28;20232;-67
2021/01/16 06:25:56;;;;;;;6.90;5.53;;;;;;;3.03;45.78;102541.69;6118729;28;20240;-68
2021/01/16 06:29:25;;;;;;;7.87;7.07;;;;;;;2.85;45.29;102539.09;6117132;28;20247;-69
2021/01/16 06:32:48;;;;;;;5.93;5.33;;;;;;;2.72;45.94;102534.16;6115622;28;20236;-68
2021/01/16 06:36:09;;;;;;;7.23;6.13;;;;;;;2.94;45.66;102536.97;6120384;28;20232;-68
2021/01/16 06:39:34;;;;;;;8.93;6.30;;;;;;;3.07;45.05;102524.72;6119334;28;20232;-68
2021/01/16 06:42:57;;;;;;;6.10;5.50;;;;;;;3.20;45.55;102528.75;6117551;28;20775;-68
2021/01/16 06:46:17;;;;;;;6.40;5.80;;;;;;;2.89;46.05;102528.16;6117934;28;20255;-68
2021/01/16 06:49:38;;;;;;;7.70;5.80;;;;;;;2.39;46.33;102521.31;6116987;28;20598;-68
2021/01/16 06:52:58;;;;;;;5.80;5.13;;;;;;;2.14;46.73;102514.03;6123088;28;20232;-69
2021/01/16 06:56:25;;;;;;;7.27;6.57;;;;;;;1.74;48.27;102505.06;6118292;28;20232;-68
2021/01/16 06:59:46;;;;;;;7.17;5.87;;;;;;;1.93;47.12;102516.34;6120664;28;20224;-68
2021/01/16 07:03:13;;;;;;;6.20;5.60;;;;;;;2.04;47.10;102512.66;6120611;28;20240;-68
2021/01/16 07:06:45;;;;;;;7.13;5.57;;;;;;;1.59;48.03;102514.53;6121979;28;20239;-68
2021/01/16 07:10:08;;;;;;;7.43;6.60;;;;;;;1.64;48.79;102507.94;6122773;28;20239;-67
2021/01/16 07:13:31;;;;;;;7.67;6.77;;;;;;;1.52;50.59;102508.16;6120173;28;20925;-68
2021/01/16 07:16:53;;;;;;;6.97;6.07;;;;;;;1.31;51.55;102509.53;6121359;28;20906;-68
2021/01/16 07:20:14;;;;;;;8.63;7.13;;;;;;;1.26;51.88;102503.25;6148434;28;20228;-68
2021/01/16 07:23:36;;;;;;;9.43;7.80;;;;;;;1.00;52.43;102496.66;6123972;28;20251;-68
2021/01/16 07:26:57;;;;;;;7.57;6.87;;;;;;;1.29;52.18;102493.16;6112118;28;20650;-68
2021/01/16 07:30:19;;;;;;;9.30;7.17;;;;;;;1.08;52.35;102497.97;6112160;28;20220;-68
2021/01/16 07:33:40;;;;;;;8.43;7.63;;;;;;;1.47;51.04;102494.16;6121791;28;20277;-68
2021/01/16 07:37:02;;;;;;;8.93;6.60;;;;;;;1.28;51.63;102497.44;6147964;28;20617;-68
2021/01/16 07:40:23;;;;;;;8.67;7.50;;;;;;;1.58;50.52;102481.94;6120103;28;20236;-69
2021/01/16 07:43:49;;;;;;;8.43;7.17;;;;;;;1.71;50.56;102483.47;6112692;28;20224;-70
2021/01/16 07:47:18;;;;;;;8.97;6.73;;;;;;;1.59;51.07;102476.00;6115201;28;20232;-68
2021/01/16 07:50:42;;;;;;;8.53;6.80;;;;;;;1.21;51.41;102479.91;6130932;28;20860;-69
2021/01/16 07:54:05;;;;;;;10.50;7.07;;;;;;;1.08;51.84;102482.56;6119819;28;20576;-68
2021/01/16 07:57:30;;;;;;;8.70;7.10;;;;;;;1.05;52.36;102469.56;6115112;28;22577;-69
2021/01/16 08:00:57;;;;;;;8.03;7.07;;;;;;;1.26;52.13;102470.78;6116936;28;20251;-68
2021/01/16 08:04:25;;;;;;;9.80;6.60;;;;;;;1.56;51.28;102468.13;6118274;28;20232;-68
2021/01/16 08:08:10;;;;;;;8.70;6.43;;;;;;;1.19;51.15;102473.81;6121644;28;20235;-69
2021/01/16 08:11:32;;;;;;;10.17;7.50;;;;;;;1.42;50.27;102469.94;6116050;28;20235;-69
2021/01/16 08:14:54;;;;;;;10.67;6.83;;;;;;;1.91;49.56;102466.56;6119961;28;20505;-68
2021/01/16 08:18:20;;;;;;;15.83;7.23;;;;;;;1.96;49.50;102455.72;6119836;28;20280;-68
2021/01/16 08:21:53;;;;;;;9.93;7.70;;;;;;;1.90;49.17;102460.53;6121766;28;20491;-68
2021/01/16 08:25:15;;;;;;;8.30;6.67;;;;;;;1.95;49.28;102466.78;6121887;28;20240;-68
2021/01/16 08:28:38;;;;;;;6.43;5.73;;;;;;;2.09;48.68;102469.19;6120869;28;20244;-67
2021/01/16 08:32:04;;;;;;;10.30;6.57;;;;;;;2.55;47.14;102474.13;6115978;28;20366;-67
2021/01/16 08:35:27;;;;;;;6.63;5.93;;;;;;;4.53;42.41;102467.78;6120723;28;20235;-68
2021/01/16 08:38:49;;;;;;;7.80;5.90;;;;;;;4.10;43.20;102478.84;6134327;28;20223;-69
2021/01/16 08:42:14;;;;;;;11.60;7.70;;;;;;;4.75;41.25;102471.28;6118745;28;20638;-67
2021/01/16 08:45:35;;;;;;;8.27;5.83;;;;;;;8.28;36.71;102466.00;6113788;28;20314;-68
2021/01/16 08:48:59;;;;;;;8.30;6.80;;;;;;;11.79;30.31;102449.41;6119807;28;20232;-68
2021/01/16 08:52:33;;;;;;;7.80;6.07;;;;;;;12.50;27.84;102442.31;6128996;28;20693;-68
2021/01/16 08:55:53;;;;;;;6.37;5.30;;;;;;;14.41;32.04;102438.06;6119468;28;20231;-68
2021/01/16 08:59:18;;;;;;;5.03;4.43;;;;;;;14.06;24.23;102431.03;6117578;28;20331;-68
2021/01/16 09:02:38;;;;;;;4.97;4.47;;;;;;;14.30;23.65;102425.78;6117327;28;20335;-68
2021/01/16 09:06:02;;;;;;;5.33;4.83;;;;;;;16.00;22.11;102431.56;6120582;28;20232;-68
2021/01/16 09:09:27;;;;;;;4.80;4.40;;;;;;;15.44;22.54;102419.56;6119005;28;20693;-67
2021/01/16 09:12:48;;;;;;;4.57;4.18;;;;;;;14.94;22.11;102430.19;6115250;28;20228;-68
2021/01/16 09:16:29;;;;;;;6.03;5.43;;;;;;;10.81;30.19;102430.66;6118323;28;20239;-68
2021/01/16 09:19:58;;;;;;;7.10;5.47;;;;;;;7.79;34.03;102438.69;6112654;28;20562;-70
2021/01/16 09:23:30;;;;;;;7.40;5.43;;;;;;;6.84;36.14;102442.78;6116017;28;20310;-68
2021/01/16 09:26:50;;;;;;;5.87;5.17;;;;;;;6.23;37.40;102435.53;6120068;28;20236;-68
2021/01/16 09:30:19;;;;;;;5.33;4.90;;;;;;;5.67;39.71;102428.34;6114628;28;20251;-68
2021/01/16 09:33:44;;;;;;;5.70;5.20;;;;;;;5.10;39.51;102426.22;6117329;28;20250;-68
2021/01/16 09:37:04;;;;;;;6.07;5.47;;;;;;;4.72;40.80;102435.88;6117719;28;20547;-67
2021/01/16 09:40:37;;;;;;;6.17;5.60;;;;;;;4.00;42.50;102445.75;6116134;28;20323;-68
2021/01/16 09:43:57;;;;;;;6.20;5.70;;;;;;;3.57;43.19;102438.66;6115883;28;20235;-68
2021/01/16 09:47:40;;;;;;;7.57;6.87;;;;;;;3.46;43.64;102445.03;6113285;28;20240;-68
2021/01/16 09:51:04;;;;;;;6.60;6.00;;;;;;;2.73;45.57;102431.31;6119032;28;20236;-68
2021/01/16 09:54:31;;;;;;;8.90;6.87;;;;;;;2.98;44.83;102440.19;6115577;28;20228;-68
2021/01/16 09:57:51;;;;;;;7.60;6.73;;;;;;;3.28;44.75;102430.47;6112515;28;20243;-67
2021/01/16 10:01:19;;;;;;;8.87;7.97;;;;;;;3.23;44.40;102429.38;6113607;28;20314;-69
2021/01/16 10:04:41;;;;;;;7.83;7.03;;;;;;;3.21;44.77;102419.81;6115272;28;20531;-68
2021/01/16 10:08:03;;;;;;;7.27;6.47;;;;;;;2.52;46.85;102433.72;6115153;28;20572;-69
2021/01/16 10:11:40;;;;;;;8.57;6.87;;;;;;;2.35;46.60;102424.28;6114992;28;20641;-66
2021/01/16 10:15:03;;;;;;;8.97;6.63;;;;;;;2.08;46.51;102437.47;6116626;28;20608;-66
2021/01/16 10:18:27;;;;;;;7.73;7.00;;;;;;;1.98;46.85;102427.53;6114044;28;20232;-67
2021/01/16 10:21:51;;;;;;;8.60;7.00;;;;;;;2.04;46.95;102415.00;6117212;28;20227;-67
2021/01/16 10:25:14;;;;;;;8.47;7.17;;;;;;;1.72;48.39;102415.88;6120338;28;20235;-69
2021/01/16 10:28:37;;;;;;;10.40;8.37;;;;;;;1.55;48.62;102417.53;6122239;28;20500;-68
2021/01/16 10:32:20;;;;;;;7.93;7.10;;;;;;;2.16;47.97;102410.47;6118798;28;20265;-68
2021/01/16 10:35:43;;;;;;;8.17;7.37;;;;;;;1.83;47.73;102398.47;6121117;28;20319;-67
2021/01/16 10:39:09;;;;;;;8.57;7.77;;;;;;;1.96;47.98;102388.91;6118536;28;20239;-68
2021/01/16 10:42:40;;;;;;;9.10;7.43;;;;;;;2.74;46.69;102380.72;6117050;28;20231;-68
2021/01/16 10:46:21;;;;;;;13.77;7.80;;;;;;;3.26;45.30;102372.88;6112886;28;20235;-67
2021/01/16 10:49:49;;;;;;;10.67;8.00;;;;;;;3.88;44.21;102383.34;6120024;28;20235;-68
2021/01/16 10:53:10;;;;;;;8.97;7.37;;;;;;;3.37;44.23;102378.50;6116893;28;20234;-68
2021/01/16 10:56:33;;;;;;;7.67;6.70;;;;;;;2.68;45.39;102383.00;6121450;28;20239;-68
2021/01/16 10:59:56;;;;;;;8.47;7.67;;;;;;;2.92;45.07;102366.16;6117841;28;20224;-67
2021/01/16 11:03:17;;;;;;;8.43;6.60;;;;;;;2.34;46.20;102371.94;6120160;28;20264;-67
2021/01/16 11:06:47;;;;;;;8.93;6.57;;;;;;;2.03;46.68;102369.53;6121751;28;20251;-67
2021/01/16 11:10:09;;;;;;;10.50;7.57;;;;;;;2.00;47.53;102361.69;6122327;28;20247;-68
2021/01/16 11:13:30;;;;;;;7.30;6.40;;;;;;;2.14;47.54;102359.81;6132825;28;20259;-68
2021/01/16 11:16:54;;;;;;;8.50;7.60;;;;;;;2.18;47.22;102343.72;6114747;28;20252;-68
2021/01/16 11:20:21;;;;;;;12.63;8.20;;;;;;;1.89;48.68;102342.25;6119776;28;20235;-67
2021/01/16 11:24:03;;;;;;;10.63;8.27;;;;;;;2.23;47.48;102331.09;6122368;28;20590;-67
2021/01/16 11:27:26;;;;;;;10.93;8.60;;;;;;;2.28;46.96;102329.63;6117197;28;20470;-68
2021/01/16 11:30:48;;;;;;;8.90;8.00;;;;;;;2.76;46.92;102314.78;6124134;28;20342;-68
2021/01/16 11:34:24;;;;;;;9.63;7.73;;;;;;;2.75;46.13;102319.06;6140389;28;20534;-67
2021/01/16 11:37:47;;;;;;;9.90;8.10;;;;;;;3.16;45.15;102319.22;6117035;28;20227;-67
2021/01/16 11:41:09;;;;;;;9.20;7.47;;;;;;;2.76;45.71;102310.53;6117856;28;20236;-68
2021/01/16 11:44:46;;;;;;;8.20;7.10;;;;;;;3.28;45.66;102306.00;6120210;28;20243;-68
2021/01/16 11:48:08;;;;;;;7.43;6.53;;;;;;;3.60;45.24;102299.66;6117214;28;20231;-67
2021/01/16 11:51:29;;;;;;;10.10;7.43;;;;;;;4.78;43.76;102287.25;6119250;28;20239;-68
2021/01/16 11:54:50;;;;;;;7.13;6.43;;;;;;;4.92;41.84;102284.38;6119636;28;20736;-68
2021/01/16 11:58:11;;;;;;;8.07;6.97;;;;;;;5.25;41.30;102277.78;6109482;28;20227;-67
2021/01/16 12:01:38;;;;;;;6.93;6.23;;;;;;;5.41;40.48;102269.78;6129315;28;20521;-67
2021/01/16 12:04:59;;;;;;;6.70;6.10;;;;;;;5.02;41.79;102261.47;6119298;28;20639;-68
2021/01/16 12:08:23;;;;;;;7.17;6.40;;;;;;;5.16;41.05;102254.22;6121780;28;20746;-67
2021/01/16 12:15:23;;;;;;;6.20;5.53;;;;;;;5.29;40.28;102257.31;6248538;23;20254;-67
2021/01/16 12:18:44;;;;;;;7.10;6.23;;;;;;;5.42;39.80;102260.31;6164493;28;20532;-66
2021/01/16 12:22:07;;;;;;;6.53;5.93;;;;;;;4.79;40.59;102251.19;6164232;28;20231;-68
2021/01/16 12:25:30;;;;;;;5.73;5.23;;;;;;;4.66;41.77;102255.00;6162110;28;20266;-67
2021/01/16 12:28:54;;;;;;;6.63;5.90;;;;;;;4.64;41.13;102255.75;6167172;28;20631;-67
2021/01/16 12:32:15;;;;;;;7.00;6.30;;;;;;;4.62;41.74;102244.50;6164512;28;20227;-67
2021/01/16 12:35:35;;;;;;;6.23;5.63;;;;;;;4.88;41.46;102246.34;6165827;28;20226;-67
2021/01/16 12:38:56;;;;;;;7.47;6.50;;;;;;;5.12;41.50;102227.44;6164461;28;20222;-67
2021/01/16 12:42:18;;;;;;;7.80;6.73;;;;;;;4.71;41.81;102217.34;6163961;28;20416;-68
2021/01/16 12:45:39;;;;;;;8.30;6.80;;;;;;;5.27;41.39;102214.16;6166320;28;20227;-68
2021/01/16 12:49:00;;;;;;;7.80;6.23;;;;;;;5.32;40.90;102210.91;6168341;28;20254;-67
2021/01/16 12:52:25;;;;;;;10.23;6.23;;;;;;;5.08;40.72;102217.81;6162399;28;20239;-68
2021/01/16 12:55:45;;;;;;;6.83;6.13;;;;;;;3.79;43.11;102206.00;6162822;28;20984;-67
2021/01/16 12:59:07;;;;;;;8.90;5.97;;;;;;;4.12;43.23;102211.63;6166796;28;20246;-68
2021/01/16 13:02:29;;;;;;;7.40;6.70;;;;;;;3.40;44.30;102212.94;6164184;28;20227;-68
2021/01/16 13:05:49;;;;;;;7.60;6.80;;;;;;;3.84;44.19;102198.44;6164692;28;20321;-69
2021/01/16 13:09:10;;;;;;;7.77;6.97;;;;;;;3.50;44.74;102189.34;6164483;28;20847;-68
2021/01/16 13:12:32;;;;;;;7.87;6.23;;;;;;;3.94;43.57;102182.56;6161931;28;20238;-68
2021/01/16 13:15:59;;;;;;;6.80;6.00;;;;;;;3.79;44.41;102181.94;6126002;28;20230;-68
2021/01/16 13:19:20;;;;;;;6.37;5.77;;;;;;;3.86;43.92;102171.06;6137728;28;20582;-68
2021/01/16 13:22:46;;;;;;;7.17;6.47;;;;;;;4.02;44.53;102180.28;6150034;28;20912;-68
2021/01/16 13:26:07;;;;;;;6.37;5.77;;;;;;;3.87;43.97;102176.25;6140478;28;20232;-67
2021/01/16 13:29:33;;;;;;;7.80;6.60;;;;;;;3.57;45.42;102169.84;6155174;28;20279;-67
2021/01/16 13:32:54;;;;;;;8.33;7.53;;;;;;;3.42;45.36;102183.00;6141898;28;20616;-67
2021/01/16 13:36:17;;;;;;;8.60;6.97;;;;;;;3.18;46.33;102175.09;6143283;28;20231;-67
2021/01/16 13:39:38;;;;;;;7.50;6.80;;;;;;;2.85;47.25;102172.81;6143215;28;20321;-68
2021/01/16 13:43:05;;;;;;;7.83;6.93;;;;;;;3.30;45.77;102161.06;6143543;28;20322;-67
2021/01/16 13:46:39;;;;;;;6.77;6.00;;;;;;;3.10;46.61;102152.50;6142693;28;20239;-69
2021/01/16 13:50:11;;;;;;;7.27;6.53;;;;;;;3.60;45.26;102157.97;6136222;28;20322;-68
2021/01/16 13:53:33;;;;;;;8.17;7.30;;;;;;;3.61;45.36;102151.16;6141674;28;20239;-68
2021/01/16 13:56:53;;;;;;;10.30;7.17;;;;;;;3.29;46.64;102154.13;6143885;28;20235;-68
2021/01/16 14:00:16;;;;;;;8.37;7.13;;;;;;;3.53;46.36;102153.41;6136630;28;20234;-68
2021/01/16 14:03:37;;;;;;;8.87;7.10;;;;;;;3.06;47.18;102162.56;6142992;28;20367;-68
2021/01/16 14:06:59;;;;;;;8.20;7.40;;;;;;;3.16;47.42;102162.19;6144102;28;20250;-67
2021/01/16 14:10:30;;;;;;;11.70;8.07;;;;;;;3.34;46.74;102150.06;6144427;28;20664;-67
2021/01/16 14:13:50;;;;;;;8.53;7.63;;;;;;;2.96;47.28;102151.88;6132185;28;20607;-68
2021/01/16 14:17:16;;;;;;;7.97;7.17;;;;;;;3.47;47.17;102147.97;6140140;28;20810;-68
2021/01/16 14:20:37;;;;;;;8.47;7.53;;;;;;;3.70;46.24;102142.09;6139920;28;20661;-67
2021/01/16 14:24:07;;;;;;;16.90;9.80;;;;;;;3.37;47.58;102132.97;6142423;28;20226;-69
2021/01/16 14:27:38;;;;;;;9.90;8.67;;;;;;;3.23;47.93;102124.69;6141860;28;20232;-68
2021/01/16 14:31:08;;;;;;;11.00;9.07;;;;;;;3.24;48.29;102129.91;6134560;28;20231;-69
2021/01/16 14:34:39;;;;;;;9.33;7.97;;;;;;;3.56;47.84;102122.59;6135748;28;20226;-68
2021/01/16 14:38:04;;;;;;;9.50;8.00;;;;;;;3.84;46.91;102115.97;6141603;28;20496;-69
2021/01/16 14:41:40;;;;;;;10.90;8.80;;;;;;;3.94;46.71;102106.09;6140291;28;20257;-67
2021/01/16 14:45:02;;;;;;;12.90;9.13;;;;;;;4.08;48.08;102108.31;6138619;28;20567;-63
2021/01/16 14:48:24;;;;;;;10.30;8.17;;;;;;;3.54;48.47;102113.94;6137638;28;20590;-66
2021/01/16 14:51:46;;;;;;;10.17;8.63;;;;;;;2.77;50.05;102118.44;6131238;28;20318;-68
2021/01/16 14:55:12;;;;;;;12.63;8.57;;;;;;;2.42;52.00;102115.19;6142914;28;20235;-68
2021/01/16 14:58:34;;;;;;;9.93;8.40;;;;;;;2.63;51.73;102107.53;6153644;28;20235;-67
2021/01/16 15:01:54;;;;;;;11.97;9.70;;;;;;;2.53;51.94;102113.09;6136001;28;20425;-68
2021/01/16 15:05:15;;;;;;;11.37;10.17;;;;;;;2.28;52.74;102114.56;6141976;28;20259;-66
2021/01/16 15:08:46;;;;;;;11.63;9.87;;;;;;;2.25;52.71;102101.59;6137502;28;20255;-68
2021/01/16 15:12:09;;;;;;;13.70;11.10;;;;;;;2.31;52.63;102093.28;6142024;28;20235;-67
2021/01/16 15:15:31;;;;;;;11.73;9.93;;;;;;;2.23;53.61;102080.06;6133397;28;20326;-67
2021/01/16 15:18:52;;;;;;;13.50;10.93;;;;;;;2.13;53.42;102080.44;6144082;28;20231;-67
2021/01/16 15:22:13;;;;;;;11.70;10.43;;;;;;;1.99;53.94;102077.25;6145495;28;20239;-67
2021/01/16 15:25:34;;;;;;;12.87;9.30;;;;;;;1.71;54.93;102068.25;6147471;28;20594;-67
2021/01/16 15:28:54;;;;;;;13.03;9.50;;;;;;;1.56;55.26;102067.53;6142900;28;20219;-67
2021/01/16 15:32:23;;;;;;;13.23;10.00;;;;;;;1.37;55.48;102064.06;6141859;28;20656;-68
2021/01/16 15:35:45;;;;;;;9.97;8.90;;;;;;;1.54;55.36;102053.75;6143105;28;20556;-67
2021/01/16 15:39:07;;;;;;;11.67;8.67;;;;;;;1.55;55.57;102055.50;6140951;28;20227;-67
2021/01/16 15:42:29;;;;;;;14.03;10.97;;;;;;;1.49;55.44;102052.63;6141752;28;20509;-67
2021/01/16 15:45:51;;;;;;;10.17;8.53;;;;;;;1.45;55.36;102043.91;6154657;28;20235;-67
2021/01/16 15:49:13;;;;;;;10.57;8.50;;;;;;;1.79;54.35;102049.78;6142162;28;20234;-66
2021/01/16 15:52:33;;;;;;;11.60;9.60;;;;;;;1.40;55.43;102042.81;6152640;28;20231;-65
2021/01/16 15:55:54;;;;;;;13.17;10.77;;;;;;;1.68;55.49;102047.56;6140877;28;20259;-66
2021/01/16 15:59:15;;;;;;;12.13;10.67;;;;;;;1.93;54.27;102051.28;6141003;28;20220;-67